Time;durP1;ratioP1;P1;durP2;ratioP2;P2;SDS_P1;SDS_P2;PMS_P1;PMS_P2;Temp;Humidity;BMP_temperature;BMP_pressure;BME280_temperature;BME280_humidity;BME280_pressure;Samples;Min_cycle;Max_cycle;Signal;HPM_P1;HPM_P2
2022/03/01 00:00:16;;;;;;;5.63;2.42;;;;;;;13.08;67.95;101463.31;2077434;28;20045;-77
2022/03/01 00:01:40;;;;;;;4.57;1.92;;;;;;;13.06;67.98;101450.03;2067113;28;20054;-78
2022/03/01 00:03:02;;;;;;;7.32;2.20;;;;;;;13.07;68.04;101443.88;2061648;28;20038;-78
2022/03/01 00:04:25;;;;;;;8.35;4.63;;;;;;;13.08;68.03;101450.97;2062201;28;20567;-77
2022/03/01 00:05:48;;;;;;;12.07;4.30;;;;;;;13.09;68.08;101459.81;2056905;28;20089;-77
2022/03/01 00:07:11;;;;;;;8.52;3.00;;;;;;;13.11;67.98;101456.31;2066952;28;20111;-78
2022/03/01 00:08:32;;;;;;;6.18;2.30;;;;;;;13.06;67.85;101459.78;2061320;28;20042;-77
2022/03/01 00:09:55;;;;;;;5.30;1.90;;;;;;;13.06;67.92;101462.41;2058592;28;20413;-77
2022/03/01 00:11:17;;;;;;;7.57;2.95;;;;;;;13.06;67.96;101463.28;2061681;28;20078;-77
2022/03/01 00:12:40;;;;;;;8.43;2.63;;;;;;;13.05;67.73;101466.81;2061617;28;20053;-77
2022/03/01 00:14:03;;;;;;;5.18;2.35;;;;;;;13.05;67.94;101444.72;2067246;28;20048;-77
2022/03/01 00:15:28;;;;;;;3.47;1.20;;;;;;;13.05;67.94;101448.28;2061700;28;20050;-78
2022/03/01 00:16:51;;;;;;;6.07;1.50;;;;;;;13.04;67.95;101442.94;2059319;28;20551;-77
2022/03/01 00:18:13;;;;;;;3.53;1.23;;;;;;;13.03;68.04;101438.50;2054054;28;20046;-77
2022/03/01 00:19:36;;;;;;;6.80;1.50;;;;;;;13.04;68.11;101435.88;2060330;28;20458;-77
2022/03/01 00:20:57;;;;;;;4.07;1.10;;;;;;;13.03;68.10;101433.19;2069186;28;20092;-77
2022/03/01 00:22:20;;;;;;;7.32;2.00;;;;;;;13.05;68.16;101431.47;2077579;28;20041;-77
2022/03/01 00:23:42;;;;;;;4.60;1.55;;;;;;;13.06;68.29;101435.91;2061050;28;20141;-77
2022/03/01 00:25:05;;;;;;;3.22;1.02;;;;;;;13.07;68.17;101435.91;2065523;28;20049;-77
2022/03/01 00:26:28;;;;;;;4.20;1.65;;;;;;;13.08;68.07;101440.34;2061424;28;20108;-77
2022/03/01 00:27:50;;;;;;;4.00;1.20;;;;;;;13.11;68.08;101434.22;2053326;28;20054;-77
2022/03/01 00:29:12;;;;;;;5.75;1.73;;;;;;;13.13;68.10;101440.44;2064342;28;20045;-78
2022/03/01 00:30:36;;;;;;;5.18;1.38;;;;;;;13.16;68.22;101438.75;2061142;28;20074;-78
2022/03/01 00:31:58;;;;;;;3.42;1.40;;;;;;;13.17;68.12;101437.00;2051373;28;20054;-77
2022/03/01 00:33:19;;;;;;;8.27;2.30;;;;;;;13.18;68.11;101436.13;2056117;28;20054;-77
2022/03/01 00:34:42;;;;;;;5.05;1.95;;;;;;;13.18;68.15;101436.13;2050847;28;20050;-78
2022/03/01 00:36:06;;;;;;;4.47;1.70;;;;;;;13.20;68.16;101433.50;2063283;28;20038;-78
2022/03/01 00:37:28;;;;;;;7.43;1.85;;;;;;;13.19;68.07;101421.13;2053690;28;20141;-77
2022/03/01 00:38:50;;;;;;;6.82;2.42;;;;;;;13.19;68.13;101411.41;2056054;28;20047;-77
2022/03/01 00:40:13;;;;;;;7.30;2.08;;;;;;;13.23;68.15;101415.00;2066349;28;20045;-77
2022/03/01 00:41:35;;;;;;;6.57;1.45;;;;;;;13.21;68.17;101417.63;2069718;28;20504;-77
2022/03/01 00:42:57;;;;;;;4.10;1.52;;;;;;;13.19;68.17;101419.38;2052089;28;20536;-78
2022/03/01 00:44:20;;;;;;;6.38;1.70;;;;;;;13.20;68.25;101417.56;2064318;28;20116;-77
2022/03/01 00:45:44;;;;;;;6.95;2.00;;;;;;;13.21;68.27;101414.06;2069286;28;20042;-78
2022/03/01 00:47:07;;;;;;;8.98;1.60;;;;;;;13.22;68.36;101414.09;2069393;28;20046;-78
2022/03/01 00:48:29;;;;;;;6.00;1.40;;;;;;;13.23;68.31;101415.00;2060112;28;20074;-76
2022/03/01 00:49:51;;;;;;;3.72;1.50;;;;;;;13.26;68.31;101420.34;2059086;28;20672;-77
2022/03/01 00:51:14;;;;;;;6.72;1.52;;;;;;;13.26;68.21;101421.22;2058671;28;20046;-77
2022/03/01 00:52:37;;;;;;;7.95;1.90;;;;;;;13.27;68.22;101419.47;2063352;28;20486;-77
2022/03/01 00:53:59;;;;;;;1.98;1.20;;;;;;;13.25;68.23;101421.22;2058998;28;20073;-77
2022/03/01 00:55:21;;;;;;;4.35;1.70;;;;;;;13.09;68.67;101420.94;2061269;28;20046;-77
2022/03/01 00:56:43;;;;;;;8.02;1.65;;;;;;;13.22;68.59;101429.09;2066372;28;20181;-77
2022/03/01 00:58:06;;;;;;;3.13;1.45;;;;;;;13.24;68.42;101430.03;2062492;28;20046;-76
2022/03/01 00:59:29;;;;;;;5.32;2.30;;;;;;;13.23;68.45;101423.84;2060802;28;20105;-77
2022/03/01 01:00:53;;;;;;;8.77;2.33;;;;;;;13.27;68.53;101430.06;2066601;28;20058;-77
2022/03/01 01:02:16;;;;;;;7.68;2.97;;;;;;;13.27;68.44;101432.72;2053446;28;20511;-77
2022/03/01 01:03:39;;;;;;;5.45;2.10;;;;;;;13.29;68.49;101423.94;2059536;28;20039;-77
2022/03/01 01:05:00;;;;;;;4.72;1.70;;;;;;;13.28;68.37;101415.94;2069527;28;20137;-77
2022/03/01 01:06:24;;;;;;;3.13;1.38;;;;;;;13.27;68.38;101415.03;2065764;28;20038;-77
2022/03/01 01:07:47;;;;;;;6.30;1.40;;;;;;;13.27;68.43;101415.03;2077583;28;20399;-77
2022/03/01 01:09:13;;;;;;;8.65;2.13;;;;;;;13.28;68.42;101421.25;2071899;28;20053;-77
2022/03/01 01:10:34;;;;;;;4.68;1.50;;;;;;;13.28;68.52;101419.50;2053365;28;20463;-76
2022/03/01 01:11:57;;;;;;;5.40;1.40;;;;;;;13.27;68.55;101415.03;2060154;28;20042;-77
2022/03/01 01:13:20;;;;;;;7.47;1.85;;;;;;;13.26;68.62;101412.41;2061274;28;20524;-76
2022/03/01 01:14:41;;;;;;;9.07;1.98;;;;;;;13.28;68.67;101415.94;2063535;28;20042;-76
2022/03/01 01:16:06;;;;;;;4.53;1.20;;;;;;;13.28;68.73;101410.63;2054718;28;20141;-76
2022/03/01 01:17:27;;;;;;;5.05;1.95;;;;;;;13.26;68.78;101410.59;2060506;28;20097;-76
2022/03/01 01:18:50;;;;;;;3.25;1.20;;;;;;;13.24;68.81;101414.13;2070251;28;20057;-76
2022/03/01 01:20:14;;;;;;;7.10;1.67;;;;;;;13.22;68.97;101410.56;2069423;28;20057;-76
2022/03/01 01:23:19;;;;;;;4.18;1.33;;;;;;;13.04;69.55;101404.06;2051491;28;20203;-76
2022/03/01 01:24:40;;;;;;;6.43;1.45;;;;;;;13.00;69.78;101398.69;2062048;28;20625;-76
2022/03/01 01:26:02;;;;;;;7.63;1.60;;;;;;;12.98;69.91;101406.63;2059350;28;20070;-76
2022/03/01 01:27:24;;;;;;;4.97;1.50;;;;;;;12.99;70.00;101403.13;2059988;28;20077;-76
2022/03/01 01:28:46;;;;;;;6.03;1.42;;;;;;;13.01;69.98;101393.41;2063986;28;20058;-76
2022/03/01 01:30:10;;;;;;;8.93;2.15;;;;;;;13.04;70.01;101398.78;2063873;28;20050;-76
2022/03/01 01:31:34;;;;;;;10.40;2.15;;;;;;;13.06;70.03;101393.50;2070929;28;20081;-76
2022/03/01 01:32:57;;;;;;;3.70;1.50;;;;;;;13.03;69.97;101390.78;2062066;28;20271;-76
2022/03/01 01:34:18;;;;;;;8.07;1.60;;;;;;;13.02;69.90;101386.34;2060524;28;20054;-76
2022/03/01 01:35:41;;;;;;;10.05;2.05;;;;;;;13.02;69.96;101384.59;2060168;28;20050;-77
2022/03/01 01:37:02;;;;;;;7.30;1.85;;;;;;;13.05;70.18;101391.72;2060171;28;20771;-76
2022/03/01 01:38:25;;;;;;;6.90;1.20;;;;;;;13.06;70.02;101404.09;2056096;28;20138;-76
2022/03/01 01:39:47;;;;;;;3.65;1.30;;;;;;;13.04;70.17;101401.44;2063589;28;20038;-77
2022/03/01 01:41:09;;;;;;;;;;;;;;;13.08;70.17;101391.75;2063073;28;20050;-76
2022/03/01 01:42:31;;;;;;;3.45;1.48;;;;;;;13.07;70.31;101384.66;2066005;28;20445;-77
2022/03/01 01:43:54;;;;;;;13.63;11.25;;;;;;;13.07;70.24;101382.91;2057863;28;20078;-76
2022/03/01 01:45:17;;;;;;;18.05;14.15;;;;;;;13.05;70.36;101387.31;2046474;29;20050;-77
2022/03/01 01:46:42;;;;;;;26.90;23.70;;;;;;;13.05;70.49;101382.00;2052081;28;20059;-76
2022/03/01 01:48:05;;;;;;;10.15;5.35;;;;;;;13.06;70.60;101385.56;2060118;28;20042;-76
2022/03/01 01:49:26;;;;;;;7.38;4.68;;;;;;;13.05;70.59;101391.72;2059822;28;20054;-76
2022/03/01 01:50:49;;;;;;;10.27;4.40;;;;;;;13.06;70.59;101393.50;2055202;28;20153;-77
2022/03/01 01:52:10;;;;;;;3.75;2.30;;;;;;;13.06;70.64;101391.72;2064506;28;20137;-76
2022/03/01 01:53:33;;;;;;;1.67;1.27;;;;;;;13.06;70.65;101383.75;2054466;28;20039;-77
2022/03/01 01:54:55;;;;;;;2.95;1.48;;;;;;;13.08;70.71;101381.16;2062299;28;20042;-77
2022/03/01 01:56:17;;;;;;;2.95;1.30;;;;;;;13.10;70.70;101384.72;2062682;28;20069;-77
2022/03/01 01:57:40;;;;;;;4.68;1.08;;;;;;;13.11;70.68;101392.69;2054569;28;20051;-77
2022/03/01 01:59:03;;;;;;;4.30;1.50;;;;;;;13.11;70.70;101387.41;2054906;28;20042;-77
2022/03/01 02:00:26;;;;;;;6.22;1.67;;;;;;;13.11;70.75;101390.06;2056577;28;20245;-77
2022/03/01 02:01:50;;;;;;;6.57;2.80;;;;;;;13.13;70.87;101385.69;2054533;28;20085;-76
2022/03/01 02:03:12;;;;;;;7.35;1.92;;;;;;;13.13;71.14;101374.19;2061634;28;20138;-77
2022/03/01 02:04:34;;;;;;;9.57;3.13;;;;;;;13.14;71.06;101376.84;2062508;28;20042;-77
2022/03/01 02:05:56;;;;;;;8.93;3.42;;;;;;;13.15;71.12;101383.06;2049169;28;20047;-77
2022/03/01 02:07:18;;;;;;;6.20;1.45;;;;;;;13.13;71.10;101369.78;2059833;28;20054;-77
2022/03/01 02:08:41;;;;;;;5.93;2.00;;;;;;;13.11;71.19;101367.94;2056977;28;20141;-77
2022/03/01 02:10:04;;;;;;;4.05;1.52;;;;;;;13.08;71.26;101359.94;2045104;29;20083;-77
2022/03/01 02:11:26;;;;;;;2.92;1.30;;;;;;;13.08;71.20;101351.97;2065228;28;20068;-76
2022/03/01 02:12:48;;;;;;;4.50;1.60;;;;;;;13.06;71.29;101354.59;2059430;28;20042;-76
2022/03/01 02:14:10;;;;;;;8.93;1.50;;;;;;;13.05;71.31;101347.56;2056114;28;20055;-77
2022/03/01 02:15:35;;;;;;;5.65;1.35;;;;;;;13.03;71.38;101343.09;2046370;29;20039;-76
2022/03/01 02:16:59;;;;;;;5.53;1.20;;;;;;;13.00;71.45;101335.97;2052391;28;20583;-77
2022/03/01 02:18:23;;;;;;;11.13;2.03;;;;;;;12.96;71.53;101330.59;2059913;28;20403;-77
2022/03/01 02:19:49;;;;;;;4.85;1.30;;;;;;;12.96;71.64;101349.16;2053957;28;20058;-76
2022/03/01 02:21:13;;;;;;;10.02;2.42;;;;;;;12.94;71.63;101335.88;2052147;28;20640;-77
2022/03/01 02:22:36;;;;;;;5.43;1.70;;;;;;;12.94;71.75;101334.97;2060280;28;20124;-76
2022/03/01 02:23:58;;;;;;;4.47;1.83;;;;;;;12.93;71.81;101347.34;2062428;28;20070;-77
2022/03/01 02:25:21;;;;;;;4.03;1.33;;;;;;;12.94;71.93;101353.53;2062984;28;20060;-76
2022/03/01 02:26:42;;;;;;;8.15;2.05;;;;;;;12.92;72.20;101342.94;2072180;28;20392;-76
2022/03/01 02:28:05;;;;;;;4.45;1.50;;;;;;;12.92;72.13;101345.59;2064220;28;20045;-76
2022/03/01 02:29:27;;;;;;;3.38;1.45;;;;;;;12.92;72.40;101344.69;2055961;28;20051;-76
2022/03/01 02:30:50;;;;;;;2.90;1.50;;;;;;;12.90;72.38;101344.66;2067788;28;20049;-76
2022/03/01 02:32:12;;;;;;;3.95;2.00;;;;;;;12.89;72.64;101352.56;2064968;28;20407;-76
2022/03/01 02:33:35;;;;;;;8.65;1.58;;;;;;;12.87;72.67;101349.00;2062607;28;20732;-76
2022/03/01 02:34:58;;;;;;;6.07;2.63;;;;;;;12.87;72.81;101349.00;2059348;28;20104;-77
2022/03/01 02:36:22;;;;;;;4.75;1.92;;;;;;;12.89;72.82;101347.28;2056654;28;20104;-77
2022/03/01 02:37:45;;;;;;;8.95;2.95;;;;;;;12.90;72.86;101342.00;2050819;28;20142;-77
2022/03/01 02:39:07;;;;;;;4.55;1.75;;;;;;;12.92;72.87;101342.03;2059788;28;20527;-76
2022/03/01 02:40:29;;;;;;;3.80;1.65;;;;;;;12.93;72.87;101335.88;2047709;28;20055;-76
2022/03/01 02:41:52;;;;;;;4.10;1.50;;;;;;;12.92;72.84;101332.34;2059343;28;20399;-76
2022/03/01 02:43:16;;;;;;;5.95;1.75;;;;;;;12.93;72.79;101330.56;2062189;28;20046;-76
2022/03/01 02:44:37;;;;;;;3.97;1.73;;;;;;;12.93;72.89;101330.56;2077991;28;20172;-76
2022/03/01 02:46:00;;;;;;;5.25;1.75;;;;;;;12.92;72.81;101327.03;2067957;28;20061;-76
2022/03/01 02:47:21;;;;;;;5.80;2.20;;;;;;;12.93;72.87;101338.53;2054012;28;20537;-76
2022/03/01 02:48:44;;;;;;;8.93;1.90;;;;;;;12.93;72.88;101330.56;2059262;28;20077;-77
2022/03/01 02:50:09;;;;;;;4.13;1.80;;;;;;;12.91;73.00;101335.84;2062042;28;20050;-76
2022/03/01 02:51:34;;;;;;;6.65;2.13;;;;;;;12.87;73.12;101333.09;2056439;28;20062;-76
2022/03/01 02:52:55;;;;;;;6.45;4.07;;;;;;;12.81;73.34;101336.56;2068022;28;20140;-77
2022/03/01 02:54:18;;;;;;;3.63;1.77;;;;;;;12.82;73.50;101341.00;2062185;28;20046;-77
2022/03/01 02:55:40;;;;;;;10.52;3.90;;;;;;;12.86;73.52;101326.06;2067500;28;20137;-76
2022/03/01 02:57:03;;;;;;;10.40;2.00;;;;;;;12.87;73.56;101327.81;2061914;28;20046;-77
2022/03/01 02:58:25;;;;;;;5.95;3.10;;;;;;;12.89;73.45;101339.31;2061872;28;20058;-76
2022/03/01 02:59:48;;;;;;;3.97;2.28;;;;;;;12.89;73.42;101342.88;2059354;28;20077;-76
2022/03/01 03:01:11;;;;;;;5.70;2.78;;;;;;;12.92;73.46;101342.94;2059012;28;20074;-76
2022/03/01 03:02:33;;;;;;;6.55;3.35;;;;;;;12.95;73.56;101342.97;2062000;28;20034;-77
2022/03/01 03:03:57;;;;;;;7.18;2.72;;;;;;;12.98;73.50;101342.13;2059201;28;20503;-77
2022/03/01 03:05:19;;;;;;;4.15;2.55;;;;;;;12.99;73.57;101338.63;2061743;28;20491;-76
2022/03/01 03:06:43;;;;;;;9.50;3.47;;;;;;;13.03;73.60;101335.13;2062146;28;20145;-76
2022/03/01 03:08:07;;;;;;;4.43;2.58;;;;;;;13.01;73.68;101339.50;2061771;28;20035;-77
2022/03/01 03:09:28;;;;;;;3.85;1.90;;;;;;;12.99;73.60;101335.97;2054637;28;20062;-76
2022/03/01 03:10:51;;;;;;;3.78;1.75;;;;;;;12.94;73.72;101333.22;2060966;28;20097;-76
2022/03/01 03:12:12;;;;;;;3.58;1.63;;;;;;;12.95;73.79;101331.47;2061692;28;20050;-77
2022/03/01 03:13:36;;;;;;;5.90;2.85;;;;;;;12.95;73.73;101328.81;2061744;28;20050;-77
2022/03/01 03:14:58;;;;;;;5.95;1.67;;;;;;;12.97;73.76;101330.63;2059623;28;20093;-77
2022/03/01 03:16:21;;;;;;;4.63;1.65;;;;;;;12.98;73.68;101332.41;2059083;28;20116;-76
2022/03/01 03:17:43;;;;;;;6.13;1.70;;;;;;;13.01;73.47;101328.91;2059283;28;20054;-76
2022/03/01 03:19:06;;;;;;;5.07;1.50;;;;;;;13.01;73.65;101324.50;2067237;28;20038;-77
2022/03/01 03:20:27;;;;;;;5.88;1.67;;;;;;;13.03;73.58;101327.19;2061840;28;20054;-77
2022/03/01 03:21:52;;;;;;;4.65;1.33;;;;;;;13.03;73.55;101320.13;2062801;28;20121;-77
2022/03/01 03:23:15;;;;;;;6.22;1.38;;;;;;;13.03;73.60;101319.22;2061512;28;20504;-77
2022/03/01 03:24:37;;;;;;;3.10;1.48;;;;;;;13.05;73.63;101322.81;2062611;28;20072;-77
2022/03/01 03:26:00;;;;;;;8.43;2.60;;;;;;;13.06;73.60;101324.59;2069825;28;20140;-77
2022/03/01 03:27:21;;;;;;;8.45;2.03;;;;;;;13.07;73.68;101331.66;2065345;28;20042;-77
2022/03/01 03:28:45;;;;;;;4.38;1.58;;;;;;;13.08;73.62;101334.31;2070628;28;20041;-77
2022/03/01 03:30:10;;;;;;;2.58;1.35;;;;;;;13.10;73.70;101339.66;2061852;28;20049;-78
2022/03/01 03:31:33;;;;;;;8.10;3.58;;;;;;;13.08;73.67;101336.97;2059898;28;20137;-77
2022/03/01 03:32:56;;;;;;;12.90;4.40;;;;;;;13.09;73.68;101328.16;2066759;28;20042;-77
2022/03/01 03:34:18;;;;;;;13.80;5.30;;;;;;;13.09;73.61;101321.97;2053724;28;20085;-77
2022/03/01 03:35:41;;;;;;;10.40;4.10;;;;;;;13.11;73.66;101329.09;2065884;28;20053;-78
2022/03/01 03:37:06;;;;;;;11.60;3.83;;;;;;;13.14;73.59;101330.91;2064375;28;20054;-77
2022/03/01 03:38:28;;;;;;;7.32;2.90;;;;;;;13.11;73.73;101333.50;2056775;28;20060;-77
2022/03/01 03:39:51;;;;;;;7.20;2.65;;;;;;;13.11;73.67;101333.50;2059064;28;20062;-77
2022/03/01 03:41:14;;;;;;;2.85;1.40;;;;;;;13.09;73.73;101324.63;2061959;28;20078;-78
2022/03/01 03:42:36;;;;;;;6.00;1.67;;;;;;;13.06;73.78;101329.88;2067340;28;20462;-77
2022/03/01 03:44:00;;;;;;;4.07;1.17;;;;;;;13.00;73.83;101327.13;2072429;28;20049;-78
2022/03/01 03:45:23;;;;;;;5.38;1.50;;;;;;;12.95;73.92;101324.41;2062998;28;20058;-77
2022/03/01 03:46:44;;;;;;;2.40;1.10;;;;;;;12.85;74.04;101325.16;2060472;28;20042;-77
2022/03/01 03:48:07;;;;;;;2.75;1.20;;;;;;;12.77;74.23;101329.44;2069526;28;20439;-77
2022/03/01 03:49:30;;;;;;;1.92;1.05;;;;;;;12.71;74.35;101329.34;2062008;28;20488;-77
2022/03/01 03:50:52;;;;;;;5.07;1.27;;;;;;;12.68;74.51;101339.88;2058840;28;20066;-77
2022/03/01 03:52:15;;;;;;;2.95;1.13;;;;;;;12.68;74.75;101340.75;2065203;28;20050;-77
2022/03/01 03:53:38;;;;;;;4.50;1.40;;;;;;;12.66;74.86;101325.75;2061602;28;20038;-78
2022/03/01 03:54:59;;;;;;;5.28;1.55;;;;;;;12.63;75.04;101326.56;2054005;28;20701;-77
2022/03/01 03:56:22;;;;;;;9.10;3.42;;;;;;;12.61;75.10;101343.28;2058608;28;20629;-77
2022/03/01 03:57:43;;;;;;;10.65;5.10;;;;;;;12.58;75.16;101344.16;2061478;28;20077;-77
2022/03/01 03:59:07;;;;;;;14.65;8.00;;;;;;;12.57;75.35;101337.06;2050590;28;20109;-77
2022/03/01 04:00:29;;;;;;;5.57;2.47;;;;;;;12.56;75.63;101337.91;2056543;28;20058;-77
2022/03/01 04:01:52;;;;;;;4.97;2.00;;;;;;;12.56;75.64;101327.31;2059050;28;20104;-78
2022/03/01 04:03:15;;;;;;;7.55;2.70;;;;;;;12.60;75.63;101323.84;2066583;28;20073;-77
2022/03/01 04:04:36;;;;;;;6.85;2.95;;;;;;;12.64;75.55;101324.81;2055880;28;20100;-77
2022/03/01 04:05:59;;;;;;;7.70;2.25;;;;;;;12.65;75.63;101331.91;2058629;28;20108;-77
2022/03/01 04:07:22;;;;;;;8.82;2.55;;;;;;;12.67;75.56;101335.44;2053771;28;20061;-77
2022/03/01 04:08:44;;;;;;;7.65;3.10;;;;;;;12.64;75.65;101336.31;2075325;28;20049;-77
2022/03/01 04:10:07;;;;;;;3.88;1.80;;;;;;;12.66;75.71;101331.94;2059396;28;20042;-77
2022/03/01 04:11:29;;;;;;;6.95;2.10;;;;;;;12.66;75.72;101331.03;2067251;28;20042;-77
2022/03/01 04:12:52;;;;;;;5.88;2.20;;;;;;;12.66;75.88;101323.09;2055855;28;20062;-77
2022/03/01 04:14:13;;;;;;;3.25;2.13;;;;;;;12.68;75.91;101326.63;2064402;28;20046;-77
2022/03/01 04:15:36;;;;;;;6.93;2.33;;;;;;;12.70;75.76;101320.50;2060593;28;20077;-77
2022/03/01 04:16:57;;;;;;;9.77;2.72;;;;;;;12.73;75.91;101317.88;2059005;28;20054;-77
2022/03/01 04:18:20;;;;;;;4.05;2.13;;;;;;;12.76;75.71;101320.59;2061096;28;20109;-77
2022/03/01 04:19:41;;;;;;;5.32;2.33;;;;;;;12.81;75.71;101314.47;2059116;28;20077;-77
2022/03/01 04:21:05;;;;;;;5.70;2.78;;;;;;;12.85;75.69;101318.97;2066882;28;20077;-77
2022/03/01 04:22:29;;;;;;;5.78;3.10;;;;;;;12.88;75.52;101319.00;2061547;28;20046;-76
2022/03/01 04:23:52;;;;;;;7.22;3.67;;;;;;;12.88;75.32;101314.59;2057892;28;20050;-77
2022/03/01 04:25:14;;;;;;;8.50;2.83;;;;;;;12.89;75.52;101320.78;2055451;28;20062;-77
2022/03/01 04:26:37;;;;;;;3.17;1.95;;;;;;;12.88;75.58;101324.28;2058700;28;20074;-77
2022/03/01 04:27:59;;;;;;;15.10;9.98;;;;;;;12.84;75.64;101328.66;2053405;28;20046;-77
2022/03/01 04:29:22;;;;;;;14.05;9.82;;;;;;;12.82;75.87;101333.03;2061910;28;20050;-77
2022/03/01 04:30:43;;;;;;;14.25;7.75;;;;;;;12.83;75.95;101331.28;2053331;28;20046;-77
2022/03/01 04:32:06;;;;;;;5.43;2.97;;;;;;;12.85;75.99;101335.75;2061247;28;20046;-77
2022/03/01 04:33:29;;;;;;;5.20;2.75;;;;;;;12.89;76.05;101336.69;2061395;28;20042;-76
2022/03/01 04:34:50;;;;;;;5.28;3.10;;;;;;;12.91;75.97;101329.66;2055878;28;20138;-77
2022/03/01 04:36:13;;;;;;;5.47;3.25;;;;;;;12.92;75.95;101324.38;2058659;28;20052;-77
2022/03/01 04:37:37;;;;;;;6.32;2.78;;;;;;;12.97;75.93;101325.34;2061549;28;20066;-77
2022/03/01 04:39:00;;;;;;;5.60;2.33;;;;;;;12.98;75.69;101316.53;2061672;28;20117;-77
2022/03/01 04:40:23;;;;;;;6.75;2.17;;;;;;;12.99;75.62;101322.72;2061226;28;20069;-77
2022/03/01 04:41:44;;;;;;;5.03;1.98;;;;;;;12.99;75.62;101320.97;2060439;28;20125;-77
2022/03/01 04:43:07;;;;;;;4.35;1.70;;;;;;;12.99;75.58;101323.59;2061558;28;20050;-76
2022/03/01 04:44:30;;;;;;;3.70;1.75;;;;;;;12.97;75.61;101325.34;2054718;28;20195;-76
2022/03/01 04:45:54;;;;;;;4.53;1.90;;;;;;;12.93;75.68;101319.97;2060196;28;20046;-76
2022/03/01 04:47:15;;;;;;;4.55;1.60;;;;;;;12.92;75.76;101323.50;2053865;28;20110;-76
2022/03/01 04:48:38;;;;;;;6.38;2.08;;;;;;;12.93;75.79;101317.31;2066230;28;20065;-77
2022/03/01 04:50:01;;;;;;;6.15;1.55;;;;;;;12.93;75.91;101315.53;2061687;28;20088;-77
2022/03/01 04:51:24;;;;;;;3.55;1.52;;;;;;;12.94;75.76;101316.44;2060577;28;20058;-77
2022/03/01 04:52:49;;;;;;;7.63;1.95;;;;;;;12.94;75.88;101314.69;2063172;28;20049;-76
2022/03/01 04:54:11;;;;;;;2.85;1.40;;;;;;;12.91;75.99;101311.09;2068692;28;20424;-77
2022/03/01 04:55:34;;;;;;;2.20;1.30;;;;;;;12.92;75.97;101304.94;2059781;28;20111;-77
2022/03/01 04:56:56;;;;;;;6.93;1.63;;;;;;;12.90;76.03;101314.63;2060465;28;20066;-77
2022/03/01 04:58:19;;;;;;;2.95;1.60;;;;;;;12.86;76.22;101313.69;2070207;28;20115;-77
2022/03/01 04:59:40;;;;;;;2.53;1.40;;;;;;;12.81;76.30;101315.34;2070997;28;20049;-77
2022/03/01 05:01:03;;;;;;;5.88;1.58;;;;;;;12.77;76.45;101318.84;2061949;28;20161;-76
2022/03/01 05:02:25;;;;;;;8.32;2.05;;;;;;;12.76;76.56;101315.28;2062644;28;20050;-76
2022/03/01 05:03:48;;;;;;;14.30;5.25;;;;;;;12.80;76.57;101321.53;2068579;28;20053;-77
2022/03/01 05:05:11;;;;;;;6.22;3.28;;;;;;;12.84;76.61;101327.78;2070468;28;20473;-76
2022/03/01 05:06:34;;;;;;;9.75;4.22;;;;;;;12.83;76.63;101331.28;2069383;28;20042;-77
2022/03/01 05:07:58;;;;;;;11.63;5.90;;;;;;;12.86;76.69;101332.25;2079111;28;20141;-76
2022/03/01 05:09:21;;;;;;;7.97;4.07;;;;;;;12.87;76.70;101341.06;2059367;28;20039;-77
2022/03/01 05:10:43;;;;;;;5.18;2.40;;;;;;;12.89;76.74;101331.38;2062418;28;20058;-77
2022/03/01 05:12:06;;;;;;;5.38;2.17;;;;;;;12.92;76.79;101336.75;2062382;28;20068;-78
2022/03/01 05:13:29;;;;;;;4.22;2.08;;;;;;;12.93;76.70;101338.53;2071147;28;20152;-77
2022/03/01 05:14:52;;;;;;;5.45;2.15;;;;;;;12.92;76.79;101336.75;2066214;28;20073;-77
2022/03/01 05:16:15;;;;;;;5.68;2.60;;;;;;;12.93;76.94;101347.34;2054635;28;20043;-77
2022/03/01 05:17:37;;;;;;;6.22;2.60;;;;;;;12.94;76.90;101341.16;2076822;28;20095;-77
2022/03/01 05:18:58;;;;;;;7.95;2.90;;;;;;;13.00;76.94;101341.25;2061947;28;20528;-77
2022/03/01 05:20:22;;;;;;;6.45;3.00;;;;;;;13.01;76.88;101350.09;2052070;28;20125;-77
2022/03/01 05:21:44;;;;;;;15.95;9.85;;;;;;;13.03;76.89;101329.81;2060368;28;20046;-77
2022/03/01 05:23:08;;;;;;;12.05;8.73;;;;;;;13.07;76.82;101348.44;2059813;28;20492;-77
2022/03/01 05:24:30;;;;;;;7.13;2.75;;;;;;;13.09;76.99;101341.41;2059933;28;20539;-77
2022/03/01 05:25:53;;;;;;;5.55;3.13;;;;;;;13.12;76.83;101340.59;2070406;28;20054;-77
2022/03/01 05:27:16;;;;;;;9.32;3.05;;;;;;;13.15;76.73;101348.59;2062002;28;20055;-78
2022/03/01 05:28:39;;;;;;;7.20;3.10;;;;;;;13.16;76.78;101351.28;2060985;28;20514;-76
2022/03/01 05:30:00;;;;;;;5.68;2.72;;;;;;;13.18;76.68;101348.66;2056877;28;20096;-77
2022/03/01 05:31:23;;;;;;;4.22;2.05;;;;;;;13.19;76.73;101352.19;2051866;28;20114;-77
2022/03/01 05:32:48;;;;;;;5.72;2.03;;;;;;;13.20;76.62;101360.16;2060232;28;20565;-77
2022/03/01 05:34:10;;;;;;;3.45;1.80;;;;;;;13.18;76.68;101355.72;2063035;28;20070;-77
2022/03/01 05:35:32;;;;;;;5.35;2.15;;;;;;;13.16;76.71;101351.28;2054864;28;20489;-77
2022/03/01 05:36:54;;;;;;;5.78;2.10;;;;;;;13.16;76.77;101348.63;2063414;28;20665;-77
2022/03/01 05:38:18;;;;;;;4.85;1.70;;;;;;;13.16;76.81;101345.97;2052296;28;20058;-76
2022/03/01 05:39:41;;;;;;;5.53;2.13;;;;;;;13.12;76.91;101351.19;2066137;28;20140;-77
2022/03/01 05:41:04;;;;;;;5.80;1.75;;;;;;;13.10;76.94;101361.75;2062198;28;20759;-77
2022/03/01 05:42:27;;;;;;;5.60;1.77;;;;;;;13.09;76.86;101364.38;2052814;28;20085;-77
2022/03/01 05:43:49;;;;;;;5.63;2.67;;;;;;;13.08;77.03;101358.19;2063963;28;20132;-77
2022/03/01 05:45:12;;;;;;;7.88;1.95;;;;;;;13.13;77.04;101368.88;2076273;28;20075;-77
2022/03/01 05:46:34;;;;;;;6.82;2.25;;;;;;;13.14;77.12;101370.66;2079095;28;20471;-77
2022/03/01 05:47:56;;;;;;;6.10;3.28;;;;;;;13.16;77.06;101368.94;2070669;28;20042;-77
2022/03/01 05:49:19;;;;;;;10.27;5.57;;;;;;;13.19;77.09;101366.34;2065647;28;20041;-77
2022/03/01 05:50:40;;;;;;;8.00;3.75;;;;;;;13.21;77.12;101367.22;2070360;28;20050;-77
2022/03/01 05:52:03;;;;;;;10.52;3.20;;;;;;;13.22;77.26;101369.03;2070538;28;20045;-76
2022/03/01 05:53:26;;;;;;;7.63;3.58;;;;;;;13.24;77.16;101362.00;2062455;28;20100;-77
2022/03/01 05:54:49;;;;;;;6.07;2.75;;;;;;;13.27;77.26;101363.78;2061537;28;20145;-77
2022/03/01 05:56:11;;;;;;;6.72;3.13;;;;;;;13.24;77.17;101356.69;2054645;28;20504;-77
2022/03/01 05:57:33;;;;;;;5.63;2.38;;;;;;;13.21;77.24;101356.63;2051856;28;20477;-77
2022/03/01 05:58:55;;;;;;;9.57;2.90;;;;;;;13.18;77.24;101359.25;2059620;28;20057;-77
2022/03/01 06:00:20;;;;;;;6.03;2.80;;;;;;;13.23;77.32;101360.22;2060107;28;20042;-77
2022/03/01 06:01:43;;;;;;;5.28;1.92;;;;;;;13.24;77.31;101364.66;2068394;28;20163;-76
2022/03/01 06:03:04;;;;;;;6.20;3.13;;;;;;;13.28;77.30;101361.16;2070331;28;20046;-78
2022/03/01 06:04:26;;;;;;;9.43;3.30;;;;;;;13.30;77.32;101366.47;2062208;28;20125;-77
2022/03/01 06:05:49;;;;;;;9.68;3.33;;;;;;;13.31;77.31;101366.53;2051737;28;20059;-77
2022/03/01 06:07:12;;;;;;;8.35;3.03;;;;;;;13.32;77.40;101357.69;2044067;29;20043;-77
2022/03/01 06:08:36;;;;;;;5.43;2.95;;;;;;;13.36;77.46;101354.22;2049544;28;20126;-77
2022/03/01 06:09:58;;;;;;;10.85;3.75;;;;;;;13.39;77.47;101356.88;2059990;28;20133;-77
2022/03/01 06:11:21;;;;;;;7.55;4.00;;;;;;;13.47;77.60;101357.88;2066150;28;20050;-77
2022/03/01 06:12:43;;;;;;;9.10;3.67;;;;;;;13.55;77.61;101360.63;2064858;28;20112;-77
2022/03/01 06:14:06;;;;;;;8.32;3.20;;;;;;;13.63;77.65;101364.28;2061726;28;20141;-77
2022/03/01 06:15:29;;;;;;;11.70;4.22;;;;;;;13.69;77.65;101360.81;2060131;28;20039;-77
2022/03/01 06:16:52;;;;;;;10.57;4.90;;;;;;;13.78;77.80;101366.25;2067979;28;20057;-78
2022/03/01 06:18:15;;;;;;;10.57;4.72;;;;;;;13.86;77.68;101364.56;2064845;28;20043;-77
2022/03/01 06:19:37;;;;;;;10.02;3.90;;;;;;;13.94;77.67;101369.09;2054352;28;20051;-77
2022/03/01 06:21:01;;;;;;;8.38;5.75;;;;;;;14.03;77.65;101370.06;2065199;28;20103;-77
2022/03/01 06:22:23;;;;;;;10.57;5.35;;;;;;;14.05;77.83;101369.19;2053261;28;20059;-77
2022/03/01 06:23:48;;;;;;;10.85;5.30;;;;;;;14.13;77.83;101367.53;2059881;28;20137;-77
2022/03/01 06:25:12;;;;;;;9.60;6.30;;;;;;;14.15;77.86;101363.13;2066232;28;20050;-77